sensor_id;sensor_type;location;lat;lon;timestamp;temperature;humidity
21582;DHT22;10952;50.836;4.348;2024-03-29T00:01:53;11.50;99.90
21582;DHT22;10952;50.836;4.348;2024-03-29T00:04:20;11.50;99.90
21582;DHT22;10952;50.836;4.348;2024-03-29T00:06:45;11.60;99.90
21582;DHT22;10952;50.836;4.348;2024-03-29T00:09:16;11.60;99.90
21582;DHT22;10952;50.836;4.348;2024-03-29T00:11:43;11.60;99.90
21582;DHT22;10952;50.836;4.348;2024-03-29T00:14:11;11.60;99.90
21582;DHT22;10952;50.836;4.348;2024-03-29T00:16:41;11.60;99.90
21582;DHT22;10952;50.836;4.348;2024-03-29T00:19:10;11.60;99.90
21582;DHT22;10952;50.836;4.348;2024-03-29T00:21:41;11.70;99.90
21582;DHT22;10952;50.836;4.348;2024-03-29T00:24:17;11.70;99.90
21582;DHT22;10952;50.836;4.348;2024-03-29T00:26:42;11.70;99.90
21582;DHT22;10952;50.836;4.348;2024-03-29T00:35:47;11.70;99.90
21582;DHT22;10952;50.836;4.348;2024-03-29T00:38:13;11.80;99.90
21582;DHT22;10952;50.836;4.348;2024-03-29T00:40:45;11.80;99.90
21582;DHT22;10952;50.836;4.348;2024-03-29T00:43:11;11.80;99.90
21582;DHT22;10952;50.836;4.348;2024-03-29T00:45:40;11.80;99.90
21582;DHT22;10952;50.836;4.348;2024-03-29T00:48:09;11.80;99.90
21582;DHT22;10952;50.836;4.348;2024-03-29T00:50:35;11.80;99.90
21582;DHT22;10952;50.836;4.348;2024-03-29T00:53:09;11.80;99.90
21582;DHT22;10952;50.836;4.348;2024-03-29T01:01:52;11.90;99.90
21582;DHT22;10952;50.836;4.348;2024-03-29T01:04:27;11.90;99.90
21582;DHT22;10952;50.836;4.348;2024-03-29T01:06:53;12.00;99.90
21582;DHT22;10952;50.836;4.348;2024-03-29T01:09:22;12.00;99.90
21582;DHT22;10952;50.836;4.348;2024-03-29T01:11:50;12.00;99.90
21582;DHT22;10952;50.836;4.348;2024-03-29T01:14:17;12.00;99.90
21582;DHT22;10952;50.836;4.348;2024-03-29T01:16:44;12.10;99.90
21582;DHT22;10952;50.836;4.348;2024-03-29T01:19:11;12.00;99.90
21582;DHT22;10952;50.836;4.348;2024-03-29T01:21:40;12.00;99.90
21582;DHT22;10952;50.836;4.348;2024-03-29T01:24:05;12.00;99.90
21582;DHT22;10952;50.836;4.348;2024-03-29T01:26:34;12.00;99.90
21582;DHT22;10952;50.836;4.348;2024-03-29T01:29:02;12.00;99.90
21582;DHT22;10952;50.836;4.348;2024-03-29T01:31:30;11.90;99.90
21582;DHT22;10952;50.836;4.348;2024-03-29T01:34:00;11.80;99.90
21582;DHT22;10952;50.836;4.348;2024-03-29T01:36:31;11.70;99.90
21582;DHT22;10952;50.836;4.348;2024-03-29T01:39:07;11.70;99.90
21582;DHT22;10952;50.836;4.348;2024-03-29T01:41:35;11.70;99.90
21582;DHT22;10952;50.836;4.348;2024-03-29T01:44:02;11.50;99.90
21582;DHT22;10952;50.836;4.348;2024-03-29T01:46:54;11.50;99.90
21582;DHT22;10952;50.836;4.348;2024-03-29T01:49:22;11.40;99.90
21582;DHT22;10952;50.836;4.348;2024-03-29T01:55:10;11.40;99.90
21582;DHT22;10952;50.836;4.348;2024-03-29T02:01:00;11.30;99.90
21582;DHT22;10952;50.836;4.348;2024-03-29T02:07:04;11.10;99.90
21582;DHT22;10952;50.836;4.348;2024-03-29T02:09:36;10.90;99.90
21582;DHT22;10952;50.836;4.348;2024-03-29T02:12:12;10.60;99.90
21582;DHT22;10952;50.836;4.348;2024-03-29T02:14:41;10.50;99.90
21582;DHT22;10952;50.836;4.348;2024-03-29T02:17:08;10.40;99.90
21582;DHT22;10952;50.836;4.348;2024-03-29T02:19:34;10.40;99.90
21582;DHT22;10952;50.836;4.348;2024-03-29T02:22:00;10.30;99.90
21582;DHT22;10952;50.836;4.348;2024-03-29T02:24:29;10.30;99.90
21582;DHT22;10952;50.836;4.348;2024-03-29T02:26:58;10.40;99.90
21582;DHT22;10952;50.836;4.348;2024-03-29T02:29:27;10.40;99.90
21582;DHT22;10952;50.836;4.348;2024-03-29T02:32:05;10.20;99.90
21582;DHT22;10952;50.836;4.348;2024-03-29T02:34:34;10.20;99.90
21582;DHT22;10952;50.836;4.348;2024-03-29T02:37:10;10.20;99.90
21582;DHT22;10952;50.836;4.348;2024-03-29T02:39:36;10.30;99.90
21582;DHT22;10952;50.836;4.348;2024-03-29T02:42:02;10.30;99.90
21582;DHT22;10952;50.836;4.348;2024-03-29T02:44:31;10.30;99.90
21582;DHT22;10952;50.836;4.348;2024-03-29T02:46:59;10.30;99.90
21582;DHT22;10952;50.836;4.348;2024-03-29T02:49:26;10.40;99.90
21582;DHT22;10952;50.836;4.348;2024-03-29T02:52:02;10.30;99.90
21582;DHT22;10952;50.836;4.348;2024-03-29T02:54:29;10.30;99.90
21582;DHT22;10952;50.836;4.348;2024-03-29T02:56:58;10.30;99.90
21582;DHT22;10952;50.836;4.348;2024-03-29T02:59:28;10.20;99.90
21582;DHT22;10952;50.836;4.348;2024-03-29T03:01:53;10.20;99.90
21582;DHT22;10952;50.836;4.348;2024-03-29T03:04:22;10.10;99.90
21582;DHT22;10952;50.836;4.348;2024-03-29T03:06:49;10.00;99.90
21582;DHT22;10952;50.836;4.348;2024-03-29T03:09:23;10.00;99.90
21582;DHT22;10952;50.836;4.348;2024-03-29T03:12:10;9.80;99.90
21582;DHT22;10952;50.836;4.348;2024-03-29T03:14:41;9.70;99.90
21582;DHT22;10952;50.836;4.348;2024-03-29T03:17:06;9.60;99.90
21582;DHT22;10952;50.836;4.348;2024-03-29T03:19:35;9.50;99.90
21582;DHT22;10952;50.836;4.348;2024-03-29T03:22:04;9.50;99.90
21582;DHT22;10952;50.836;4.348;2024-03-29T03:24:30;9.50;99.90
21582;DHT22;10952;50.836;4.348;2024-03-29T03:27:16;9.50;99.90
21582;DHT22;10952;50.836;4.348;2024-03-29T03:30:00;9.40;99.90
21582;DHT22;10952;50.836;4.348;2024-03-29T03:32:46;9.40;99.90
21582;DHT22;10952;50.836;4.348;2024-03-29T03:35:15;9.40;99.90
21582;DHT22;10952;50.836;4.348;2024-03-29T03:37:45;9.40;99.90
21582;DHT22;10952;50.836;4.348;2024-03-29T03:40:14;9.40;99.90
21582;DHT22;10952;50.836;4.348;2024-03-29T03:42:51;9.20;99.90
21582;DHT22;10952;50.836;4.348;2024-03-29T03:45:24;9.20;99.90
21582;DHT22;10952;50.836;4.348;2024-03-29T03:47:50;9.10;99.90
21582;DHT22;10952;50.836;4.348;2024-03-29T03:50:16;9.10;99.90
21582;DHT22;10952;50.836;4.348;2024-03-29T03:52:42;9.00;99.90
21582;DHT22;10952;50.836;4.348;2024-03-29T03:55:08;9.00;99.90
21582;DHT22;10952;50.836;4.348;2024-03-29T04:00:56;9.00;99.90
21582;DHT22;10952;50.836;4.348;2024-03-29T04:03:22;8.90;99.90
21582;DHT22;10952;50.836;4.348;2024-03-29T04:05:58;8.90;99.90
21582;DHT22;10952;50.836;4.348;2024-03-29T04:08:29;9.00;99.90
21582;DHT22;10952;50.836;4.348;2024-03-29T04:10:54;9.00;99.90
21582;DHT22;10952;50.836;4.348;2024-03-29T04:13:26;9.00;99.90
21582;DHT22;10952;50.836;4.348;2024-03-29T04:15:51;9.10;99.90
21582;DHT22;10952;50.836;4.348;2024-03-29T04:18:17;9.10;99.90
21582;DHT22;10952;50.836;4.348;2024-03-29T04:21:04;9.10;99.90
21582;DHT22;10952;50.836;4.348;2024-03-29T04:23:33;9.10;99.90
21582;DHT22;10952;50.836;4.348;2024-03-29T04:26:00;9.00;99.90
21582;DHT22;10952;50.836;4.348;2024-03-29T04:28:26;9.10;99.90
21582;DHT22;10952;50.836;4.348;2024-03-29T04:30:58;9.10;99.90
21582;DHT22;10952;50.836;4.348;2024-03-29T04:33:25;9.10;99.90
21582;DHT22;10952;50.836;4.348;2024-03-29T04:36:03;8.90;99.90
21582;DHT22;10952;50.836;4.348;2024-03-29T04:38:32;8.90;99.90
21582;DHT22;10952;50.836;4.348;2024-03-29T04:40:59;9.00;99.90
21582;DHT22;10952;50.836;4.348;2024-03-29T04:43:28;9.00;99.90
21582;DHT22;10952;50.836;4.348;2024-03-29T04:46:03;8.90;99.90
21582;DHT22;10952;50.836;4.348;2024-03-29T04:48:31;9.00;99.90
21582;DHT22;10952;50.836;4.348;2024-03-29T04:50:57;9.00;99.90
21582;DHT22;10952;50.836;4.348;2024-03-29T04:53:24;9.00;99.90
21582;DHT22;10952;50.836;4.348;2024-03-29T04:56:01;8.90;99.90
21582;DHT22;10952;50.836;4.348;2024-03-29T04:58:52;8.90;99.90
21582;DHT22;10952;50.836;4.348;2024-03-29T05:01:26;8.90;99.90
21582;DHT22;10952;50.836;4.348;2024-03-29T05:03:52;9.00;99.90
21582;DHT22;10952;50.836;4.348;2024-03-29T05:06:18;8.90;99.90
21582;DHT22;10952;50.836;4.348;2024-03-29T05:08:44;8.90;99.90
21582;DHT22;10952;50.836;4.348;2024-03-29T05:11:10;8.90;99.90
21582;DHT22;10952;50.836;4.348;2024-03-29T05:13:39;8.90;99.90
21582;DHT22;10952;50.836;4.348;2024-03-29T05:16:05;9.00;99.90
21582;DHT22;10952;50.836;4.348;2024-03-29T05:18:34;9.00;99.90
21582;DHT22;10952;50.836;4.348;2024-03-29T05:20:59;9.10;99.90
21582;DHT22;10952;50.836;4.348;2024-03-29T05:23:27;9.10;99.90
21582;DHT22;10952;50.836;4.348;2024-03-29T05:25:53;9.10;99.90
21582;DHT22;10952;50.836;4.348;2024-03-29T05:28:19;9.00;99.90
21582;DHT22;10952;50.836;4.348;2024-03-29T05:30:45;9.10;99.90
21582;DHT22;10952;50.836;4.348;2024-03-29T05:33:13;9.10;99.90
21582;DHT22;10952;50.836;4.348;2024-03-29T05:35:48;9.20;99.90
21582;DHT22;10952;50.836;4.348;2024-03-29T05:38:25;9.20;99.90
21582;DHT22;10952;50.836;4.348;2024-03-29T05:40:50;9.10;99.90
21582;DHT22;10952;50.836;4.348;2024-03-29T05:43:18;9.10;99.90
21582;DHT22;10952;50.836;4.348;2024-03-29T05:45:44;9.20;99.90
21582;DHT22;10952;50.836;4.348;2024-03-29T05:48:10;9.20;99.90
21582;DHT22;10952;50.836;4.348;2024-03-29T05:50:37;9.30;99.90
21582;DHT22;10952;50.836;4.348;2024-03-29T05:53:03;9.30;99.90
21582;DHT22;10952;50.836;4.348;2024-03-29T05:55:29;9.30;99.90
21582;DHT22;10952;50.836;4.348;2024-03-29T05:57:55;9.30;99.90
21582;DHT22;10952;50.836;4.348;2024-03-29T06:00:24;9.30;99.90
21582;DHT22;10952;50.836;4.348;2024-03-29T06:02:49;9.40;99.90
21582;DHT22;10952;50.836;4.348;2024-03-29T06:05:32;9.30;99.90
21582;DHT22;10952;50.836;4.348;2024-03-29T06:07:59;9.30;99.90
21582;DHT22;10952;50.836;4.348;2024-03-29T06:10:25;9.30;99.90
21582;DHT22;10952;50.836;4.348;2024-03-29T06:12:56;9.30;99.90
21582;DHT22;10952;50.836;4.348;2024-03-29T06:15:31;9.40;99.90
21582;DHT22;10952;50.836;4.348;2024-03-29T06:18:15;9.40;99.90
21582;DHT22;10952;50.836;4.348;2024-03-29T06:20:46;9.40;99.90
21582;DHT22;10952;50.836;4.348;2024-03-29T06:23:12;9.40;99.90
21582;DHT22;10952;50.836;4.348;2024-03-29T06:25:41;9.50;99.90
21582;DHT22;10952;50.836;4.348;2024-03-29T06:28:09;9.50;99.90
21582;DHT22;10952;50.836;4.348;2024-03-29T06:30:35;9.50;99.90
21582;DHT22;10952;50.836;4.348;2024-03-29T06:33:01;9.50;99.90
21582;DHT22;10952;50.836;4.348;2024-03-29T06:35:30;9.50;99.90
21582;DHT22;10952;50.836;4.348;2024-03-29T06:37:57;9.50;99.90
21582;DHT22;10952;50.836;4.348;2024-03-29T06:40:31;9.50;99.90
21582;DHT22;10952;50.836;4.348;2024-03-29T06:42:57;9.50;99.90
21582;DHT22;10952;50.836;4.348;2024-03-29T06:45:25;9.50;99.90
21582;DHT22;10952;50.836;4.348;2024-03-29T06:47:53;9.50;99.90
21582;DHT22;10952;50.836;4.348;2024-03-29T06:50:30;9.60;99.90
21582;DHT22;10952;50.836;4.348;2024-03-29T06:52:57;9.70;99.90
21582;DHT22;10952;50.836;4.348;2024-03-29T06:55:24;9.80;99.90
21582;DHT22;10952;50.836;4.348;2024-03-29T07:00:25;10.10;99.90
21582;DHT22;10952;50.836;4.348;2024-03-29T07:02:51;9.90;99.90
21582;DHT22;10952;50.836;4.348;2024-03-29T07:05:17;10.00;99.90
21582;DHT22;10952;50.836;4.348;2024-03-29T07:07:42;10.00;99.90
21582;DHT22;10952;50.836;4.348;2024-03-29T07:15:22;10.00;99.90
21582;DHT22;10952;50.836;4.348;2024-03-29T07:17:51;9.90;99.90
21582;DHT22;10952;50.836;4.348;2024-03-29T07:20:18;10.20;99.90
21582;DHT22;10952;50.836;4.348;2024-03-29T07:22:53;10.40;99.90
21582;DHT22;10952;50.836;4.348;2024-03-29T07:25:22;10.30;99.90
21582;DHT22;10952;50.836;4.348;2024-03-29T07:27:50;10.50;99.90
21582;DHT22;10952;50.836;4.348;2024-03-29T07:30:16;10.40;99.90
21582;DHT22;10952;50.836;4.348;2024-03-29T07:32:42;10.40;99.90
21582;DHT22;10952;50.836;4.348;2024-03-29T07:35:08;10.40;99.90
21582;DHT22;10952;50.836;4.348;2024-03-29T07:37:37;10.50;99.90
21582;DHT22;10952;50.836;4.348;2024-03-29T07:40:13;10.50;99.90
21582;DHT22;10952;50.836;4.348;2024-03-29T07:42:44;10.60;99.90
21582;DHT22;10952;50.836;4.348;2024-03-29T07:45:10;10.70;99.90
21582;DHT22;10952;50.836;4.348;2024-03-29T07:47:36;10.80;99.90
21582;DHT22;10952;50.836;4.348;2024-03-29T07:50:04;10.90;99.90
21582;DHT22;10952;50.836;4.348;2024-03-29T07:52:38;11.00;99.90
21582;DHT22;10952;50.836;4.348;2024-03-29T07:55:07;11.00;99.90
21582;DHT22;10952;50.836;4.348;2024-03-29T07:57:35;11.10;99.90
21582;DHT22;10952;50.836;4.348;2024-03-29T08:00:03;11.10;99.90
21582;DHT22;10952;50.836;4.348;2024-03-29T08:02:35;11.30;99.90
21582;DHT22;10952;50.836;4.348;2024-03-29T08:05:06;11.40;99.90
21582;DHT22;10952;50.836;4.348;2024-03-29T08:07:32;11.60;99.90
21582;DHT22;10952;50.836;4.348;2024-03-29T08:09:58;11.70;99.90
21582;DHT22;10952;50.836;4.348;2024-03-29T08:12:24;12.00;99.90
21582;DHT22;10952;50.836;4.348;2024-03-29T08:14:53;12.00;99.90
21582;DHT22;10952;50.836;4.348;2024-03-29T08:17:18;11.90;99.90
21582;DHT22;10952;50.836;4.348;2024-03-29T08:19:47;12.00;99.90
21582;DHT22;10952;50.836;4.348;2024-03-29T08:22:15;12.10;99.90
21582;DHT22;10952;50.836;4.348;2024-03-29T08:24:44;12.10;99.90
21582;DHT22;10952;50.836;4.348;2024-03-29T08:27:10;12.00;99.90
21582;DHT22;10952;50.836;4.348;2024-03-29T08:29:43;11.80;99.90
21582;DHT22;10952;50.836;4.348;2024-03-29T08:32:15;12.00;99.90
21582;DHT22;10952;50.836;4.348;2024-03-29T08:34:43;12.20;99.90
21582;DHT22;10952;50.836;4.348;2024-03-29T08:37:14;12.20;99.90
21582;DHT22;10952;50.836;4.348;2024-03-29T08:39:40;12.30;99.90
21582;DHT22;10952;50.836;4.348;2024-03-29T08:42:13;12.20;99.90
21582;DHT22;10952;50.836;4.348;2024-03-29T08:44:39;12.10;99.90
21582;DHT22;10952;50.836;4.348;2024-03-29T08:47:05;12.20;99.90
21582;DHT22;10952;50.836;4.348;2024-03-29T08:49:32;12.30;99.90
21582;DHT22;10952;50.836;4.348;2024-03-29T08:51:59;12.20;99.90
21582;DHT22;10952;50.836;4.348;2024-03-29T08:54:27;12.40;99.90
21582;DHT22;10952;50.836;4.348;2024-03-29T08:56:56;12.60;99.90
21582;DHT22;10952;50.836;4.348;2024-03-29T08:59:24;12.60;99.90
21582;DHT22;10952;50.836;4.348;2024-03-29T09:01:50;12.50;99.90
21582;DHT22;10952;50.836;4.348;2024-03-29T09:04:19;12.60;99.90
21582;DHT22;10952;50.836;4.348;2024-03-29T09:06:46;12.70;99.90
21582;DHT22;10952;50.836;4.348;2024-03-29T09:09:13;12.80;99.90
21582;DHT22;10952;50.836;4.348;2024-03-29T09:11:42;12.90;99.90
21582;DHT22;10952;50.836;4.348;2024-03-29T09:14:12;13.00;99.90
21582;DHT22;10952;50.836;4.348;2024-03-29T09:16:38;13.10;99.90
21582;DHT22;10952;50.836;4.348;2024-03-29T09:19:08;13.20;99.90
21582;DHT22;10952;50.836;4.348;2024-03-29T09:21:39;13.30;99.90
21582;DHT22;10952;50.836;4.348;2024-03-29T09:24:05;13.20;99.90
21582;DHT22;10952;50.836;4.348;2024-03-29T09:26:31;13.30;99.90
21582;DHT22;10952;50.836;4.348;2024-03-29T09:28:57;13.40;99.90
21582;DHT22;10952;50.836;4.348;2024-03-29T09:31:24;13.60;99.90
21582;DHT22;10952;50.836;4.348;2024-03-29T09:33:50;13.70;99.90
21582;DHT22;10952;50.836;4.348;2024-03-29T09:36:24;13.80;99.90
21582;DHT22;10952;50.836;4.348;2024-03-29T09:38:52;14.10;99.90
21582;DHT22;10952;50.836;4.348;2024-03-29T09:41:22;14.10;99.90
21582;DHT22;10952;50.836;4.348;2024-03-29T09:43:53;14.10;99.90
21582;DHT22;10952;50.836;4.348;2024-03-29T09:46:23;14.00;99.90
21582;DHT22;10952;50.836;4.348;2024-03-29T09:48:51;13.90;99.90
21582;DHT22;10952;50.836;4.348;2024-03-29T09:51:21;14.00;99.90
21582;DHT22;10952;50.836;4.348;2024-03-29T09:53:49;14.00;99.90
21582;DHT22;10952;50.836;4.348;2024-03-29T09:56:20;14.10;99.90
21582;DHT22;10952;50.836;4.348;2024-03-29T09:58:50;14.20;99.90
21582;DHT22;10952;50.836;4.348;2024-03-29T10:01:18;14.20;99.90
21582;DHT22;10952;50.836;4.348;2024-03-29T10:03:50;14.10;99.90
21582;DHT22;10952;50.836;4.348;2024-03-29T10:06:29;14.10;99.90
21582;DHT22;10952;50.836;4.348;2024-03-29T10:09:00;14.30;99.90
21582;DHT22;10952;50.836;4.348;2024-03-29T10:11:27;14.50;99.90
21582;DHT22;10952;50.836;4.348;2024-03-29T10:13:53;14.60;99.90
21582;DHT22;10952;50.836;4.348;2024-03-29T10:16:21;14.40;99.90
21582;DHT22;10952;50.836;4.348;2024-03-29T10:18:58;14.40;99.90
21582;DHT22;10952;50.836;4.348;2024-03-29T10:21:27;14.50;99.90
21582;DHT22;10952;50.836;4.348;2024-03-29T10:23:54;14.50;99.90
21582;DHT22;10952;50.836;4.348;2024-03-29T10:26:26;14.40;99.90
21582;DHT22;10952;50.836;4.348;2024-03-29T10:29:02;14.60;99.90
21582;DHT22;10952;50.836;4.348;2024-03-29T10:31:39;14.70;99.90
21582;DHT22;10952;50.836;4.348;2024-03-29T10:34:07;14.60;99.90
21582;DHT22;10952;50.836;4.348;2024-03-29T10:36:34;14.80;99.90
21582;DHT22;10952;50.836;4.348;2024-03-29T10:39:18;14.90;99.90
21582;DHT22;10952;50.836;4.348;2024-03-29T10:42:09;14.60;99.90
21582;DHT22;10952;50.836;4.348;2024-03-29T10:44:41;14.60;99.90
21582;DHT22;10952;50.836;4.348;2024-03-29T10:47:24;14.70;99.90
21582;DHT22;10952;50.836;4.348;2024-03-29T10:50:00;15.10;99.90
21582;DHT22;10952;50.836;4.348;2024-03-29T10:52:31;15.20;99.90
21582;DHT22;10952;50.836;4.348;2024-03-29T10:54:59;15.10;99.90
21582;DHT22;10952;50.836;4.348;2024-03-29T10:57:26;15.10;99.90
21582;DHT22;10952;50.836;4.348;2024-03-29T11:00:12;15.20;99.90
21582;DHT22;10952;50.836;4.348;2024-03-29T11:03:02;15.20;99.90
21582;DHT22;10952;50.836;4.348;2024-03-29T11:05:39;16.00;99.90
21582;DHT22;10952;50.836;4.348;2024-03-29T11:08:07;17.60;99.90
21582;DHT22;10952;50.836;4.348;2024-03-29T11:10:44;19.00;99.90
21582;DHT22;10952;50.836;4.348;2024-03-29T11:16:41;19.70;99.90
21582;DHT22;10952;50.836;4.348;2024-03-29T11:19:20;20.30;99.90
21582;DHT22;10952;50.836;4.348;2024-03-29T11:22:07;20.70;99.90
21582;DHT22;10952;50.836;4.348;2024-03-29T11:24:33;20.60;99.90
21582;DHT22;10952;50.836;4.348;2024-03-29T11:27:47;20.60;99.90
21582;DHT22;10952;50.836;4.348;2024-03-29T11:30:21;20.40;99.90
21582;DHT22;10952;50.836;4.348;2024-03-29T11:32:50;20.40;99.90
21582;DHT22;10952;50.836;4.348;2024-03-29T11:35:26;20.50;99.90
21582;DHT22;10952;50.836;4.348;2024-03-29T11:38:04;20.80;99.90
21582;DHT22;10952;50.836;4.348;2024-03-29T11:40:31;20.60;99.90
21582;DHT22;10952;50.836;4.348;2024-03-29T11:42:57;20.00;99.90
21582;DHT22;10952;50.836;4.348;2024-03-29T11:45:29;19.90;99.90
21582;DHT22;10952;50.836;4.348;2024-03-29T11:48:03;20.20;99.90
21582;DHT22;10952;50.836;4.348;2024-03-29T11:50:35;20.00;99.90
21582;DHT22;10952;50.836;4.348;2024-03-29T11:53:05;19.60;99.90
21582;DHT22;10952;50.836;4.348;2024-03-29T11:55:34;19.60;99.90
21582;DHT22;10952;50.836;4.348;2024-03-29T11:58:05;20.30;99.90
21582;DHT22;10952;50.836;4.348;2024-03-29T12:00:33;20.20;99.90
21582;DHT22;10952;50.836;4.348;2024-03-29T12:03:16;19.80;99.90
21582;DHT22;10952;50.836;4.348;2024-03-29T12:05:52;19.90;99.90
21582;DHT22;10952;50.836;4.348;2024-03-29T12:08:33;20.30;99.90
21582;DHT22;10952;50.836;4.348;2024-03-29T12:11:02;20.50;99.90
21582;DHT22;10952;50.836;4.348;2024-03-29T12:13:29;19.90;99.90
21582;DHT22;10952;50.836;4.348;2024-03-29T12:15:57;19.50;99.90
21582;DHT22;10952;50.836;4.348;2024-03-29T12:18:27;19.70;99.90
21582;DHT22;10952;50.836;4.348;2024-03-29T12:20:55;19.80;99.90
21582;DHT22;10952;50.836;4.348;2024-03-29T12:23:21;19.60;99.90
21582;DHT22;10952;50.836;4.348;2024-03-29T12:25:57;19.60;99.90
21582;DHT22;10952;50.836;4.348;2024-03-29T12:28:26;19.20;99.90
21582;DHT22;10952;50.836;4.348;2024-03-29T12:30:53;19.30;99.90
21582;DHT22;10952;50.836;4.348;2024-03-29T12:33:23;19.20;99.90
21582;DHT22;10952;50.836;4.348;2024-03-29T12:35:51;18.90;99.90
21582;DHT22;10952;50.836;4.348;2024-03-29T12:38:24;18.80;99.90
21582;DHT22;10952;50.836;4.348;2024-03-29T12:40:51;18.90;99.90
21582;DHT22;10952;50.836;4.348;2024-03-29T12:43:22;18.80;99.90
21582;DHT22;10952;50.836;4.348;2024-03-29T12:45:52;18.80;99.90
21582;DHT22;10952;50.836;4.348;2024-03-29T12:48:20;19.00;99.90
21582;DHT22;10952;50.836;4.348;2024-03-29T12:50:49;19.00;99.90
21582;DHT22;10952;50.836;4.348;2024-03-29T12:53:16;18.70;99.90
21582;DHT22;10952;50.836;4.348;2024-03-29T12:55:47;18.40;99.90
21582;DHT22;10952;50.836;4.348;2024-03-29T12:58:18;18.30;99.90
21582;DHT22;10952;50.836;4.348;2024-03-29T13:00:56;18.50;99.90
21582;DHT22;10952;50.836;4.348;2024-03-29T13:03:32;18.70;99.90
21582;DHT22;10952;50.836;4.348;2024-03-29T13:06:18;18.70;99.90
21582;DHT22;10952;50.836;4.348;2024-03-29T13:11:51;18.90;99.90
21582;DHT22;10952;50.836;4.348;2024-03-29T13:14:20;18.60;99.90
21582;DHT22;10952;50.836;4.348;2024-03-29T13:16:46;18.30;99.90
21582;DHT22;10952;50.836;4.348;2024-03-29T13:19:13;18.20;99.90
21582;DHT22;10952;50.836;4.348;2024-03-29T13:21:49;18.10;99.90
21582;DHT22;10952;50.836;4.348;2024-03-29T13:24:17;17.90;99.90
21582;DHT22;10952;50.836;4.348;2024-03-29T13:26:44;17.70;99.90
21582;DHT22;10952;50.836;4.348;2024-03-29T13:29:18;17.70;99.90
21582;DHT22;10952;50.836;4.348;2024-03-29T13:32:31;17.60;99.90
21582;DHT22;10952;50.836;4.348;2024-03-29T13:35:00;17.50;99.90
21582;DHT22;10952;50.836;4.348;2024-03-29T13:37:44;17.60;99.90
21582;DHT22;10952;50.836;4.348;2024-03-29T13:40:22;17.50;99.90
21582;DHT22;10952;50.836;4.348;2024-03-29T13:42:53;17.50;99.90
21582;DHT22;10952;50.836;4.348;2024-03-29T13:45:42;17.40;99.90
21582;DHT22;10952;50.836;4.348;2024-03-29T13:48:14;17.40;99.90
21582;DHT22;10952;50.836;4.348;2024-03-29T13:50:47;17.50;99.90
21582;DHT22;10952;50.836;4.348;2024-03-29T13:53:25;17.40;99.90
21582;DHT22;10952;50.836;4.348;2024-03-29T13:55:57;17.40;99.90
21582;DHT22;10952;50.836;4.348;2024-03-29T13:58:26;17.20;99.90
21582;DHT22;10952;50.836;4.348;2024-03-29T14:01:03;17.10;99.90
21582;DHT22;10952;50.836;4.348;2024-03-29T14:03:44;17.10;99.90
21582;DHT22;10952;50.836;4.348;2024-03-29T14:06:20;16.90;99.90
21582;DHT22;10952;50.836;4.348;2024-03-29T14:09:07;17.10;99.90
21582;DHT22;10952;50.836;4.348;2024-03-29T14:11:35;17.20;99.90
21582;DHT22;10952;50.836;4.348;2024-03-29T14:14:21;17.40;99.90
21582;DHT22;10952;50.836;4.348;2024-03-29T14:17:03;17.30;99.90
21582;DHT22;10952;50.836;4.348;2024-03-29T14:19:38;17.60;99.90
21582;DHT22;10952;50.836;4.348;2024-03-29T14:22:35;17.70;99.90
21582;DHT22;10952;50.836;4.348;2024-03-29T14:25:23;17.60;99.90
21582;DHT22;10952;50.836;4.348;2024-03-29T14:28:02;17.50;99.90
21582;DHT22;10952;50.836;4.348;2024-03-29T14:33:30;17.70;99.90
21582;DHT22;10952;50.836;4.348;2024-03-29T14:36:05;17.80;99.90
21582;DHT22;10952;50.836;4.348;2024-03-29T14:38:48;17.70;99.90
21582;DHT22;10952;50.836;4.348;2024-03-29T14:41:14;17.60;99.90
21582;DHT22;10952;50.836;4.348;2024-03-29T14:43:46;17.60;99.90
21582;DHT22;10952;50.836;4.348;2024-03-29T14:46:40;17.70;99.90
21582;DHT22;10952;50.836;4.348;2024-03-29T14:49:08;17.70;99.90
21582;DHT22;10952;50.836;4.348;2024-03-29T14:51:55;17.70;99.90
21582;DHT22;10952;50.836;4.348;2024-03-29T14:54:53;17.60;99.90
21582;DHT22;10952;50.836;4.348;2024-03-29T14:57:19;17.60;99.90
21582;DHT22;10952;50.836;4.348;2024-03-29T14:59:53;17.70;99.90
21582;DHT22;10952;50.836;4.348;2024-03-29T15:02:39;17.80;99.90
21582;DHT22;10952;50.836;4.348;2024-03-29T15:05:08;17.80;99.90
21582;DHT22;10952;50.836;4.348;2024-03-29T15:07:37;17.70;99.90
21582;DHT22;10952;50.836;4.348;2024-03-29T15:10:07;17.50;99.90
21582;DHT22;10952;50.836;4.348;2024-03-29T15:12:37;17.40;99.90
21582;DHT22;10952;50.836;4.348;2024-03-29T15:15:10;17.30;99.90
21582;DHT22;10952;50.836;4.348;2024-03-29T15:17:35;17.50;99.90
21582;DHT22;10952;50.836;4.348;2024-03-29T15:20:01;17.60;99.90
21582;DHT22;10952;50.836;4.348;2024-03-29T15:22:32;17.70;99.90
21582;DHT22;10952;50.836;4.348;2024-03-29T15:25:07;17.60;99.90
21582;DHT22;10952;50.836;4.348;2024-03-29T15:27:45;17.60;99.90
21582;DHT22;10952;50.836;4.348;2024-03-29T15:30:36;17.50;99.90
21582;DHT22;10952;50.836;4.348;2024-03-29T15:33:11;17.50;99.90
21582;DHT22;10952;50.836;4.348;2024-03-29T15:35:42;17.50;99.90
21582;DHT22;10952;50.836;4.348;2024-03-29T15:38:09;17.50;99.90
21582;DHT22;10952;50.836;4.348;2024-03-29T15:40:44;17.50;99.90
21582;DHT22;10952;50.836;4.348;2024-03-29T15:43:17;17.60;99.90
21582;DHT22;10952;50.836;4.348;2024-03-29T15:45:55;17.40;99.90
21582;DHT22;10952;50.836;4.348;2024-03-29T15:48:23;17.50;99.90
21582;DHT22;10952;50.836;4.348;2024-03-29T15:50:57;17.50;99.90
21582;DHT22;10952;50.836;4.348;2024-03-29T15:53:26;17.50;99.90
21582;DHT22;10952;50.836;4.348;2024-03-29T15:55:58;17.40;99.90
21582;DHT22;10952;50.836;4.348;2024-03-29T15:58:33;17.50;99.90
21582;DHT22;10952;50.836;4.348;2024-03-29T16:01:09;17.60;99.90
21582;DHT22;10952;50.836;4.348;2024-03-29T16:03:56;17.90;99.90
21582;DHT22;10952;50.836;4.348;2024-03-29T16:06:53;18.10;99.90
21582;DHT22;10952;50.836;4.348;2024-03-29T16:09:35;18.10;99.90
21582;DHT22;10952;50.836;4.348;2024-03-29T16:12:05;18.00;99.90
21582;DHT22;10952;50.836;4.348;2024-03-29T16:14:49;18.10;99.90
21582;DHT22;10952;50.836;4.348;2024-03-29T16:17:23;17.90;99.90
21582;DHT22;10952;50.836;4.348;2024-03-29T16:19:52;17.80;99.90
21582;DHT22;10952;50.836;4.348;2024-03-29T16:22:26;17.70;99.90
21582;DHT22;10952;50.836;4.348;2024-03-29T16:25:13;17.60;99.90
21582;DHT22;10952;50.836;4.348;2024-03-29T16:28:01;17.40;99.90
21582;DHT22;10952;50.836;4.348;2024-03-29T16:30:50;17.30;99.90
21582;DHT22;10952;50.836;4.348;2024-03-29T16:33:29;17.20;99.90
21582;DHT22;10952;50.836;4.348;2024-03-29T16:35:57;17.20;99.90
21582;DHT22;10952;50.836;4.348;2024-03-29T16:38:35;17.20;99.90
21582;DHT22;10952;50.836;4.348;2024-03-29T16:41:20;17.10;99.90
21582;DHT22;10952;50.836;4.348;2024-03-29T16:44:17;17.00;99.90
21582;DHT22;10952;50.836;4.348;2024-03-29T16:47:11;17.00;99.90